sensor_id;sensor_type;location;lat;lon;timestamp;temperature;humidity
17701;DHT22;8969;48.576;12.580;2022-10-16T00:01:36;13.60;99.90
17701;DHT22;8969;48.576;12.580;2022-10-16T00:04:04;13.70;99.90
17701;DHT22;8969;48.576;12.580;2022-10-16T00:06:33;13.70;99.90
17701;DHT22;8969;48.576;12.580;2022-10-16T00:09:03;13.70;99.90
17701;DHT22;8969;48.576;12.580;2022-10-16T00:11:33;13.70;99.90
17701;DHT22;8969;48.576;12.580;2022-10-16T00:14:05;13.70;99.90
17701;DHT22;8969;48.576;12.580;2022-10-16T00:16:33;13.70;99.90
17701;DHT22;8969;48.576;12.580;2022-10-16T00:19:02;13.60;99.90
17701;DHT22;8969;48.576;12.580;2022-10-16T00:21:31;13.60;99.90
17701;DHT22;8969;48.576;12.580;2022-10-16T00:24:03;13.70;99.90
17701;DHT22;8969;48.576;12.580;2022-10-16T00:26:33;13.70;99.90
17701;DHT22;8969;48.576;12.580;2022-10-16T00:29:03;13.60;99.90
17701;DHT22;8969;48.576;12.580;2022-10-16T00:31:32;13.60;99.90
17701;DHT22;8969;48.576;12.580;2022-10-16T00:34:01;13.60;99.90
17701;DHT22;8969;48.576;12.580;2022-10-16T00:36:29;13.60;99.90
17701;DHT22;8969;48.576;12.580;2022-10-16T00:38:58;13.50;99.90
17701;DHT22;8969;48.576;12.580;2022-10-16T00:41:30;13.50;99.90
17701;DHT22;8969;48.576;12.580;2022-10-16T00:44:00;13.50;99.90
17701;DHT22;8969;48.576;12.580;2022-10-16T00:46:35;13.50;99.90
17701;DHT22;8969;48.576;12.580;2022-10-16T00:49:05;13.40;99.90
17701;DHT22;8969;48.576;12.580;2022-10-16T00:51:36;13.40;99.90
17701;DHT22;8969;48.576;12.580;2022-10-16T00:54:08;13.40;99.90
17701;DHT22;8969;48.576;12.580;2022-10-16T00:56:38;13.30;99.90
17701;DHT22;8969;48.576;12.580;2022-10-16T00:59:12;13.20;99.90
17701;DHT22;8969;48.576;12.580;2022-10-16T01:01:42;13.20;99.90
17701;DHT22;8969;48.576;12.580;2022-10-16T01:04:10;13.20;99.90
17701;DHT22;8969;48.576;12.580;2022-10-16T01:06:46;13.20;99.90
17701;DHT22;8969;48.576;12.580;2022-10-16T01:09:19;13.10;99.90
17701;DHT22;8969;48.576;12.580;2022-10-16T01:11:59;13.10;99.90
17701;DHT22;8969;48.576;12.580;2022-10-16T01:14:34;13.10;99.90
17701;DHT22;8969;48.576;12.580;2022-10-16T01:17:10;13.00;99.90
17701;DHT22;8969;48.576;12.580;2022-10-16T01:19:54;13.00;99.90
17701;DHT22;8969;48.576;12.580;2022-10-16T01:22:35;13.00;99.90
17701;DHT22;8969;48.576;12.580;2022-10-16T01:25:09;12.90;99.90
17701;DHT22;8969;48.576;12.580;2022-10-16T01:27:42;12.90;99.90
17701;DHT22;8969;48.576;12.580;2022-10-16T01:30:16;12.90;99.90
17701;DHT22;8969;48.576;12.580;2022-10-16T01:32:49;12.90;99.90
17701;DHT22;8969;48.576;12.580;2022-10-16T01:35:21;12.80;99.90
17701;DHT22;8969;48.576;12.580;2022-10-16T01:37:54;12.80;99.90
17701;DHT22;8969;48.576;12.580;2022-10-16T01:40:26;12.70;99.90
17701;DHT22;8969;48.576;12.580;2022-10-16T01:43:01;12.70;99.90
17701;DHT22;8969;48.576;12.580;2022-10-16T01:45:31;12.70;99.90
17701;DHT22;8969;48.576;12.580;2022-10-16T01:48:02;12.70;99.90
17701;DHT22;8969;48.576;12.580;2022-10-16T01:50:33;12.70;99.90
17701;DHT22;8969;48.576;12.580;2022-10-16T01:53:03;12.70;99.90
17701;DHT22;8969;48.576;12.580;2022-10-16T01:58:08;12.60;99.90
17701;DHT22;8969;48.576;12.580;2022-10-16T02:00:38;12.50;99.90
17701;DHT22;8969;48.576;12.580;2022-10-16T02:03:09;12.50;99.90
17701;DHT22;8969;48.576;12.580;2022-10-16T02:05:41;12.50;99.90
17701;DHT22;8969;48.576;12.580;2022-10-16T02:08:10;12.50;99.90
17701;DHT22;8969;48.576;12.580;2022-10-16T02:10:39;12.50;99.90
17701;DHT22;8969;48.576;12.580;2022-10-16T02:13:11;12.50;99.90
17701;DHT22;8969;48.576;12.580;2022-10-16T02:15:41;12.50;99.90
17701;DHT22;8969;48.576;12.580;2022-10-16T02:18:09;12.40;99.90
17701;DHT22;8969;48.576;12.580;2022-10-16T02:20:43;12.40;99.90
17701;DHT22;8969;48.576;12.580;2022-10-16T02:23:18;12.50;99.90
17701;DHT22;8969;48.576;12.580;2022-10-16T02:25:47;12.40;99.90
17701;DHT22;8969;48.576;12.580;2022-10-16T02:28:23;12.40;99.90
17701;DHT22;8969;48.576;12.580;2022-10-16T02:30:56;12.40;99.90
17701;DHT22;8969;48.576;12.580;2022-10-16T02:33:27;12.30;99.90
17701;DHT22;8969;48.576;12.580;2022-10-16T02:35:56;12.40;99.90
17701;DHT22;8969;48.576;12.580;2022-10-16T02:38:25;12.40;99.90
17701;DHT22;8969;48.576;12.580;2022-10-16T02:40:54;12.40;99.90
17701;DHT22;8969;48.576;12.580;2022-10-16T02:43:24;12.40;99.90
17701;DHT22;8969;48.576;12.580;2022-10-16T02:45:53;12.40;99.90
17701;DHT22;8969;48.576;12.580;2022-10-16T02:48:21;12.40;99.90
17701;DHT22;8969;48.576;12.580;2022-10-16T02:50:49;12.40;99.90
17701;DHT22;8969;48.576;12.580;2022-10-16T02:53:18;12.40;99.90
17701;DHT22;8969;48.576;12.580;2022-10-16T02:55:46;12.40;99.90
17701;DHT22;8969;48.576;12.580;2022-10-16T02:58:14;12.40;99.90
17701;DHT22;8969;48.576;12.580;2022-10-16T03:00:44;12.40;99.90
17701;DHT22;8969;48.576;12.580;2022-10-16T03:03:12;12.50;99.90
17701;DHT22;8969;48.576;12.580;2022-10-16T03:05:42;12.40;99.90
17701;DHT22;8969;48.576;12.580;2022-10-16T03:08:10;12.40;99.90
17701;DHT22;8969;48.576;12.580;2022-10-16T03:10:38;12.50;99.90
17701;DHT22;8969;48.576;12.580;2022-10-16T03:13:06;12.50;99.90
17701;DHT22;8969;48.576;12.580;2022-10-16T03:15:34;12.50;99.90
17701;DHT22;8969;48.576;12.580;2022-10-16T03:18:04;12.40;99.90
17701;DHT22;8969;48.576;12.580;2022-10-16T03:20:32;12.30;99.90
17701;DHT22;8969;48.576;12.580;2022-10-16T03:23:00;12.30;99.90
17701;DHT22;8969;48.576;12.580;2022-10-16T03:25:29;12.20;99.90
17701;DHT22;8969;48.576;12.580;2022-10-16T03:27:58;12.20;99.90
17701;DHT22;8969;48.576;12.580;2022-10-16T03:30:26;12.20;99.90
17701;DHT22;8969;48.576;12.580;2022-10-16T03:32:54;12.20;99.90
17701;DHT22;8969;48.576;12.580;2022-10-16T03:35:24;12.20;99.90
17701;DHT22;8969;48.576;12.580;2022-10-16T03:37:52;12.10;99.90
17701;DHT22;8969;48.576;12.580;2022-10-16T03:40:20;12.10;99.90
17701;DHT22;8969;48.576;12.580;2022-10-16T03:42:48;12.10;99.90
17701;DHT22;8969;48.576;12.580;2022-10-16T03:45:16;12.10;99.90
17701;DHT22;8969;48.576;12.580;2022-10-16T03:47:44;12.10;99.90
17701;DHT22;8969;48.576;12.580;2022-10-16T03:50:13;12.10;99.90
17701;DHT22;8969;48.576;12.580;2022-10-16T03:52:42;12.10;99.90
17701;DHT22;8969;48.576;12.580;2022-10-16T03:55:10;12.10;99.90
17701;DHT22;8969;48.576;12.580;2022-10-16T03:57:38;12.10;99.90
17701;DHT22;8969;48.576;12.580;2022-10-16T04:00:07;12.10;99.90
17701;DHT22;8969;48.576;12.580;2022-10-16T04:02:38;12.10;99.90
17701;DHT22;8969;48.576;12.580;2022-10-16T04:05:07;12.00;99.90
17701;DHT22;8969;48.576;12.580;2022-10-16T04:07:35;12.00;99.90
17701;DHT22;8969;48.576;12.580;2022-10-16T04:10:06;12.00;99.90
17701;DHT22;8969;48.576;12.580;2022-10-16T04:12:34;12.00;99.90
17701;DHT22;8969;48.576;12.580;2022-10-16T04:15:03;12.00;99.90
17701;DHT22;8969;48.576;12.580;2022-10-16T04:17:31;12.00;99.90
17701;DHT22;8969;48.576;12.580;2022-10-16T04:19:59;12.00;99.90
17701;DHT22;8969;48.576;12.580;2022-10-16T04:22:27;11.80;99.90
17701;DHT22;8969;48.576;12.580;2022-10-16T04:24:56;11.90;99.90
17701;DHT22;8969;48.576;12.580;2022-10-16T04:27:25;11.90;99.90
17701;DHT22;8969;48.576;12.580;2022-10-16T04:29:54;11.80;99.90
17701;DHT22;8969;48.576;12.580;2022-10-16T04:32:22;11.80;99.90
17701;DHT22;8969;48.576;12.580;2022-10-16T04:34:51;11.80;99.90
17701;DHT22;8969;48.576;12.580;2022-10-16T04:37:22;11.70;99.90
17701;DHT22;8969;48.576;12.580;2022-10-16T04:39:51;11.60;99.90
17701;DHT22;8969;48.576;12.580;2022-10-16T04:42:20;11.60;99.90
17701;DHT22;8969;48.576;12.580;2022-10-16T04:44:49;11.60;99.90
17701;DHT22;8969;48.576;12.580;2022-10-16T04:47:18;11.60;99.90
17701;DHT22;8969;48.576;12.580;2022-10-16T04:49:46;11.60;99.90
17701;DHT22;8969;48.576;12.580;2022-10-16T04:52:14;11.60;99.90
17701;DHT22;8969;48.576;12.580;2022-10-16T04:54:43;11.60;99.90
17701;DHT22;8969;48.576;12.580;2022-10-16T04:57:12;11.70;99.90
17701;DHT22;8969;48.576;12.580;2022-10-16T04:59:40;11.70;99.90
17701;DHT22;8969;48.576;12.580;2022-10-16T05:02:10;11.70;99.90
17701;DHT22;8969;48.576;12.580;2022-10-16T05:04:39;11.70;99.90
17701;DHT22;8969;48.576;12.580;2022-10-16T05:07:07;11.60;99.90
17701;DHT22;8969;48.576;12.580;2022-10-16T05:09:35;11.60;99.90
17701;DHT22;8969;48.576;12.580;2022-10-16T05:12:03;11.60;99.90
17701;DHT22;8969;48.576;12.580;2022-10-16T05:14:31;11.70;99.90
17701;DHT22;8969;48.576;12.580;2022-10-16T05:17:00;11.70;99.90
17701;DHT22;8969;48.576;12.580;2022-10-16T05:19:30;11.70;99.90
17701;DHT22;8969;48.576;12.580;2022-10-16T05:21:58;11.60;99.90
17701;DHT22;8969;48.576;12.580;2022-10-16T05:24:26;11.60;99.90
17701;DHT22;8969;48.576;12.580;2022-10-16T05:26:54;11.70;99.90
17701;DHT22;8969;48.576;12.580;2022-10-16T05:29:22;11.70;99.90
17701;DHT22;8969;48.576;12.580;2022-10-16T05:31:51;11.70;99.90
17701;DHT22;8969;48.576;12.580;2022-10-16T05:34:20;11.70;99.90
17701;DHT22;8969;48.576;12.580;2022-10-16T05:36:49;11.80;99.90
17701;DHT22;8969;48.576;12.580;2022-10-16T05:39:18;11.80;99.90
17701;DHT22;8969;48.576;12.580;2022-10-16T05:41:46;11.90;99.90
17701;DHT22;8969;48.576;12.580;2022-10-16T05:44:15;11.90;99.90
17701;DHT22;8969;48.576;12.580;2022-10-16T05:46:43;11.90;99.90
17701;DHT22;8969;48.576;12.580;2022-10-16T05:49:11;12.00;99.90
17701;DHT22;8969;48.576;12.580;2022-10-16T05:51:39;12.10;99.90
17701;DHT22;8969;48.576;12.580;2022-10-16T05:54:09;12.10;99.90
17701;DHT22;8969;48.576;12.580;2022-10-16T05:56:38;12.10;99.90
17701;DHT22;8969;48.576;12.580;2022-10-16T05:59:06;12.20;99.90
17701;DHT22;8969;48.576;12.580;2022-10-16T06:01:34;12.20;99.90
17701;DHT22;8969;48.576;12.580;2022-10-16T06:04:02;12.30;99.90
17701;DHT22;8969;48.576;12.580;2022-10-16T06:06:31;12.30;99.90
17701;DHT22;8969;48.576;12.580;2022-10-16T06:08:59;12.30;99.90
17701;DHT22;8969;48.576;12.580;2022-10-16T06:11:30;12.30;99.90
17701;DHT22;8969;48.576;12.580;2022-10-16T06:14:00;12.30;99.90
17701;DHT22;8969;48.576;12.580;2022-10-16T06:16:30;12.30;99.90
17701;DHT22;8969;48.576;12.580;2022-10-16T06:18:58;12.30;99.90
17701;DHT22;8969;48.576;12.580;2022-10-16T06:21:27;12.30;99.90
17701;DHT22;8969;48.576;12.580;2022-10-16T06:23:56;12.30;99.90
17701;DHT22;8969;48.576;12.580;2022-10-16T06:26:27;12.30;99.90
17701;DHT22;8969;48.576;12.580;2022-10-16T06:28:59;12.30;99.90
17701;DHT22;8969;48.576;12.580;2022-10-16T06:31:28;12.30;99.90
17701;DHT22;8969;48.576;12.580;2022-10-16T06:33:58;12.40;99.90
17701;DHT22;8969;48.576;12.580;2022-10-16T06:36:27;12.40;99.90
17701;DHT22;8969;48.576;12.580;2022-10-16T06:38:55;12.50;99.90
17701;DHT22;8969;48.576;12.580;2022-10-16T06:41:24;12.50;99.90
17701;DHT22;8969;48.576;12.580;2022-10-16T06:43:52;12.50;99.90
17701;DHT22;8969;48.576;12.580;2022-10-16T06:46:23;12.60;99.90
17701;DHT22;8969;48.576;12.580;2022-10-16T06:48:52;12.60;99.90
17701;DHT22;8969;48.576;12.580;2022-10-16T06:51:22;12.70;99.90
17701;DHT22;8969;48.576;12.580;2022-10-16T06:53:52;12.70;99.90
17701;DHT22;8969;48.576;12.580;2022-10-16T06:56:30;12.70;99.90
17701;DHT22;8969;48.576;12.580;2022-10-16T06:58:59;12.80;99.90
17701;DHT22;8969;48.576;12.580;2022-10-16T07:01:29;12.80;99.90
17701;DHT22;8969;48.576;12.580;2022-10-16T07:03:57;12.80;99.90
17701;DHT22;8969;48.576;12.580;2022-10-16T07:06:26;12.90;99.90
17701;DHT22;8969;48.576;12.580;2022-10-16T07:08:55;12.90;99.90
17701;DHT22;8969;48.576;12.580;2022-10-16T07:11:23;13.00;99.90
17701;DHT22;8969;48.576;12.580;2022-10-16T07:13:51;13.10;99.90
17701;DHT22;8969;48.576;12.580;2022-10-16T07:16:23;13.20;99.90
17701;DHT22;8969;48.576;12.580;2022-10-16T07:18:53;13.20;99.90
17701;DHT22;8969;48.576;12.580;2022-10-16T07:21:26;13.20;99.90
17701;DHT22;8969;48.576;12.580;2022-10-16T07:23:58;13.20;99.90
17701;DHT22;8969;48.576;12.580;2022-10-16T07:26:28;13.30;99.90
17701;DHT22;8969;48.576;12.580;2022-10-16T07:28:56;13.30;99.90
17701;DHT22;8969;48.576;12.580;2022-10-16T07:31:25;13.30;99.90
17701;DHT22;8969;48.576;12.580;2022-10-16T07:33:55;13.40;99.90
17701;DHT22;8969;48.576;12.580;2022-10-16T07:36:23;13.60;99.90
17701;DHT22;8969;48.576;12.580;2022-10-16T07:38:51;13.80;99.90
17701;DHT22;8969;48.576;12.580;2022-10-16T07:41:26;14.00;99.90
17701;DHT22;8969;48.576;12.580;2022-10-16T07:43:55;14.10;99.90
17701;DHT22;8969;48.576;12.580;2022-10-16T07:46:27;14.30;99.90
17701;DHT22;8969;48.576;12.580;2022-10-16T07:48:57;14.40;99.90
17701;DHT22;8969;48.576;12.580;2022-10-16T07:51:25;14.60;99.90
17701;DHT22;8969;48.576;12.580;2022-10-16T07:53:54;14.60;99.90
17701;DHT22;8969;48.576;12.580;2022-10-16T07:56:23;14.60;99.90
17701;DHT22;8969;48.576;12.580;2022-10-16T07:58:51;14.60;99.90
17701;DHT22;8969;48.576;12.580;2022-10-16T08:01:20;14.60;99.90
17701;DHT22;8969;48.576;12.580;2022-10-16T08:03:50;14.60;99.90
17701;DHT22;8969;48.576;12.580;2022-10-16T08:06:21;14.60;99.90
17701;DHT22;8969;48.576;12.580;2022-10-16T08:08:54;14.70;99.90
17701;DHT22;8969;48.576;12.580;2022-10-16T08:11:23;14.70;99.90
17701;DHT22;8969;48.576;12.580;2022-10-16T08:13:51;14.80;99.90
17701;DHT22;8969;48.576;12.580;2022-10-16T08:16:19;14.80;99.90
17701;DHT22;8969;48.576;12.580;2022-10-16T08:18:48;14.80;99.90
17701;DHT22;8969;48.576;12.580;2022-10-16T08:21:21;14.90;99.90
17701;DHT22;8969;48.576;12.580;2022-10-16T08:23:50;15.00;99.90
17701;DHT22;8969;48.576;12.580;2022-10-16T08:26:24;15.20;99.90
17701;DHT22;8969;48.576;12.580;2022-10-16T08:28:54;15.30;99.90
17701;DHT22;8969;48.576;12.580;2022-10-16T08:31:23;15.30;99.90
17701;DHT22;8969;48.576;12.580;2022-10-16T08:33:53;15.50;99.90
17701;DHT22;8969;48.576;12.580;2022-10-16T08:36:23;15.50;99.90
17701;DHT22;8969;48.576;12.580;2022-10-16T08:38:51;15.50;99.90
17701;DHT22;8969;48.576;12.580;2022-10-16T08:41:59;15.50;99.90
17701;DHT22;8969;48.576;12.580;2022-10-16T08:48:08;15.30;99.90
17701;DHT22;8969;48.576;12.580;2022-10-16T08:50:40;15.30;99.90
17701;DHT22;8969;48.576;12.580;2022-10-16T08:53:15;15.40;99.90
17701;DHT22;8969;48.576;12.580;2022-10-16T08:55:46;15.40;99.90
17701;DHT22;8969;48.576;12.580;2022-10-16T08:58:18;15.50;99.90
17701;DHT22;8969;48.576;12.580;2022-10-16T09:00:49;15.80;99.90
17701;DHT22;8969;48.576;12.580;2022-10-16T09:03:28;16.00;99.90
17701;DHT22;8969;48.576;12.580;2022-10-16T09:06:14;16.20;99.90
17701;DHT22;8969;48.576;12.580;2022-10-16T09:08:55;16.40;99.90
17701;DHT22;8969;48.576;12.580;2022-10-16T09:11:34;16.50;99.90
17701;DHT22;8969;48.576;12.580;2022-10-16T09:14:12;16.60;99.90
17701;DHT22;8969;48.576;12.580;2022-10-16T09:16:50;16.70;99.90
17701;DHT22;8969;48.576;12.580;2022-10-16T09:19:26;16.80;99.90
17701;DHT22;8969;48.576;12.580;2022-10-16T09:21:56;17.00;99.90
17701;DHT22;8969;48.576;12.580;2022-10-16T09:24:26;17.10;99.90
17701;DHT22;8969;48.576;12.580;2022-10-16T09:26:55;17.20;99.90
17701;DHT22;8969;48.576;12.580;2022-10-16T09:29:23;17.20;99.90
17701;DHT22;8969;48.576;12.580;2022-10-16T09:31:52;17.40;99.90
17701;DHT22;8969;48.576;12.580;2022-10-16T09:34:32;17.40;99.90
17701;DHT22;8969;48.576;12.580;2022-10-16T09:37:05;17.50;99.90
17701;DHT22;8969;48.576;12.580;2022-10-16T09:39:46;17.60;99.90
17701;DHT22;8969;48.576;12.580;2022-10-16T09:42:16;17.70;99.90
17701;DHT22;8969;48.576;12.580;2022-10-16T09:44:48;17.80;99.90
17701;DHT22;8969;48.576;12.580;2022-10-16T09:47:20;17.90;99.90
17701;DHT22;8969;48.576;12.580;2022-10-16T09:49:53;18.00;99.90
17701;DHT22;8969;48.576;12.580;2022-10-16T09:52:22;18.00;99.90
17701;DHT22;8969;48.576;12.580;2022-10-16T09:54:53;18.10;99.90
17701;DHT22;8969;48.576;12.580;2022-10-16T09:57:22;18.10;99.90
17701;DHT22;8969;48.576;12.580;2022-10-16T09:59:53;18.20;99.90
17701;DHT22;8969;48.576;12.580;2022-10-16T10:02:28;18.30;99.90
17701;DHT22;8969;48.576;12.580;2022-10-16T10:04:58;18.40;99.90
17701;DHT22;8969;48.576;12.580;2022-10-16T10:07:27;18.40;99.90
17701;DHT22;8969;48.576;12.580;2022-10-16T10:09:57;18.40;99.90
17701;DHT22;8969;48.576;12.580;2022-10-16T10:12:27;18.50;99.90
17701;DHT22;8969;48.576;12.580;2022-10-16T10:14:57;18.50;99.90
17701;DHT22;8969;48.576;12.580;2022-10-16T10:17:26;18.50;99.90
17701;DHT22;8969;48.576;12.580;2022-10-16T10:19:57;18.60;99.90
17701;DHT22;8969;48.576;12.580;2022-10-16T10:22:32;18.60;99.90
17701;DHT22;8969;48.576;12.580;2022-10-16T10:25:21;18.60;99.90
17701;DHT22;8969;48.576;12.580;2022-10-16T10:28:07;18.70;99.90
17701;DHT22;8969;48.576;12.580;2022-10-16T10:30:41;18.80;99.90
17701;DHT22;8969;48.576;12.580;2022-10-16T10:33:21;18.80;99.90
17701;DHT22;8969;48.576;12.580;2022-10-16T10:35:59;18.90;99.90
17701;DHT22;8969;48.576;12.580;2022-10-16T10:38:41;18.90;99.90
17701;DHT22;8969;48.576;12.580;2022-10-16T10:41:34;19.00;99.90
17701;DHT22;8969;48.576;12.580;2022-10-16T10:44:15;19.10;99.90
17701;DHT22;8969;48.576;12.580;2022-10-16T10:46:49;19.10;99.90
17701;DHT22;8969;48.576;12.580;2022-10-16T10:49:34;19.10;99.90
17701;DHT22;8969;48.576;12.580;2022-10-16T10:52:35;19.10;99.90
17701;DHT22;8969;48.576;12.580;2022-10-16T10:55:13;19.20;99.90
17701;DHT22;8969;48.576;12.580;2022-10-16T10:58:04;19.30;99.90
17701;DHT22;8969;48.576;12.580;2022-10-16T11:00:45;19.40;99.90
17701;DHT22;8969;48.576;12.580;2022-10-16T11:03:27;19.40;99.90
17701;DHT22;8969;48.576;12.580;2022-10-16T11:06:04;19.40;99.90
17701;DHT22;8969;48.576;12.580;2022-10-16T11:08:36;19.50;99.90
17701;DHT22;8969;48.576;12.580;2022-10-16T11:11:08;19.60;99.90
17701;DHT22;8969;48.576;12.580;2022-10-16T11:13:45;19.60;99.90
17701;DHT22;8969;48.576;12.580;2022-10-16T11:16:20;19.60;99.90
17701;DHT22;8969;48.576;12.580;2022-10-16T11:18:54;19.60;99.90
17701;DHT22;8969;48.576;12.580;2022-10-16T11:21:26;19.70;99.90
17701;DHT22;8969;48.576;12.580;2022-10-16T11:24:00;19.70;99.90
17701;DHT22;8969;48.576;12.580;2022-10-16T11:26:34;19.80;99.90
17701;DHT22;8969;48.576;12.580;2022-10-16T11:29:05;19.80;99.90
17701;DHT22;8969;48.576;12.580;2022-10-16T11:31:41;19.90;99.90
17701;DHT22;8969;48.576;12.580;2022-10-16T11:34:17;19.90;99.90
17701;DHT22;8969;48.576;12.580;2022-10-16T11:36:53;19.90;99.90
17701;DHT22;8969;48.576;12.580;2022-10-16T11:39:27;20.00;99.90
17701;DHT22;8969;48.576;12.580;2022-10-16T11:42:01;20.10;99.90
17701;DHT22;8969;48.576;12.580;2022-10-16T11:44:44;20.10;99.90
17701;DHT22;8969;48.576;12.580;2022-10-16T11:47:25;20.30;99.90
17701;DHT22;8969;48.576;12.580;2022-10-16T11:50:22;20.30;99.90
17701;DHT22;8969;48.576;12.580;2022-10-16T11:52:57;20.30;99.90
17701;DHT22;8969;48.576;12.580;2022-10-16T11:55:30;20.30;99.90
17701;DHT22;8969;48.576;12.580;2022-10-16T11:58:03;20.40;99.90
17701;DHT22;8969;48.576;12.580;2022-10-16T12:00:40;20.40;99.90
17701;DHT22;8969;48.576;12.580;2022-10-16T12:03:17;20.50;99.90
17701;DHT22;8969;48.576;12.580;2022-10-16T12:05:58;20.50;99.90
17701;DHT22;8969;48.576;12.580;2022-10-16T12:08:29;20.50;99.90
17701;DHT22;8969;48.576;12.580;2022-10-16T12:11:07;20.50;99.90
17701;DHT22;8969;48.576;12.580;2022-10-16T12:13:37;20.50;99.90
17701;DHT22;8969;48.576;12.580;2022-10-16T12:16:21;20.60;99.90
17701;DHT22;8969;48.576;12.580;2022-10-16T12:18:50;20.70;99.90
17701;DHT22;8969;48.576;12.580;2022-10-16T12:21:30;20.80;99.90
17701;DHT22;8969;48.576;12.580;2022-10-16T12:24:00;20.80;99.90
17701;DHT22;8969;48.576;12.580;2022-10-16T12:26:32;20.80;99.90
17701;DHT22;8969;48.576;12.580;2022-10-16T12:29:13;20.90;99.90
17701;DHT22;8969;48.576;12.580;2022-10-16T12:31:46;20.90;99.90
17701;DHT22;8969;48.576;12.580;2022-10-16T12:34:28;20.80;99.90
17701;DHT22;8969;48.576;12.580;2022-10-16T12:37:08;20.80;99.90
17701;DHT22;8969;48.576;12.580;2022-10-16T12:39:37;20.80;99.90
17701;DHT22;8969;48.576;12.580;2022-10-16T12:42:20;20.80;99.90
17701;DHT22;8969;48.576;12.580;2022-10-16T12:44:49;20.90;99.90
17701;DHT22;8969;48.576;12.580;2022-10-16T12:47:23;20.90;99.90
17701;DHT22;8969;48.576;12.580;2022-10-16T12:49:53;20.80;99.90
17701;DHT22;8969;48.576;12.580;2022-10-16T12:52:26;20.80;99.90
17701;DHT22;8969;48.576;12.580;2022-10-16T12:54:57;20.80;99.90
17701;DHT22;8969;48.576;12.580;2022-10-16T12:57:39;20.80;99.90
17701;DHT22;8969;48.576;12.580;2022-10-16T13:00:18;20.90;99.90
17701;DHT22;8969;48.576;12.580;2022-10-16T13:05:54;21.10;99.90
17701;DHT22;8969;48.576;12.580;2022-10-16T13:08:38;21.20;99.90
17701;DHT22;8969;48.576;12.580;2022-10-16T13:11:16;21.40;99.90
17701;DHT22;8969;48.576;12.580;2022-10-16T13:14:00;21.50;99.90
17701;DHT22;8969;48.576;12.580;2022-10-16T13:16:38;21.40;99.90
17701;DHT22;8969;48.576;12.580;2022-10-16T13:19:19;21.40;99.90
17701;DHT22;8969;48.576;12.580;2022-10-16T13:21:55;21.60;99.90
17701;DHT22;8969;48.576;12.580;2022-10-16T13:24:46;21.70;99.90
17701;DHT22;8969;48.576;12.580;2022-10-16T13:27:24;21.70;99.90
17701;DHT22;8969;48.576;12.580;2022-10-16T13:30:01;21.70;99.90
17701;DHT22;8969;48.576;12.580;2022-10-16T13:32:30;21.60;99.90
17701;DHT22;8969;48.576;12.580;2022-10-16T13:35:00;21.50;99.90
17701;DHT22;8969;48.576;12.580;2022-10-16T13:37:28;21.50;99.90
17701;DHT22;8969;48.576;12.580;2022-10-16T13:40:11;21.60;99.90
17701;DHT22;8969;48.576;12.580;2022-10-16T13:42:45;21.50;99.90
17701;DHT22;8969;48.576;12.580;2022-10-16T13:45:18;21.40;99.90
17701;DHT22;8969;48.576;12.580;2022-10-16T13:47:47;21.40;99.90
17701;DHT22;8969;48.576;12.580;2022-10-16T13:50:18;21.30;99.90
17701;DHT22;8969;48.576;12.580;2022-10-16T13:52:46;21.20;99.90
17701;DHT22;8969;48.576;12.580;2022-10-16T13:55:16;21.20;99.90
17701;DHT22;8969;48.576;12.580;2022-10-16T13:57:44;21.10;99.90
17701;DHT22;8969;48.576;12.580;2022-10-16T14:00:21;21.10;99.90
17701;DHT22;8969;48.576;12.580;2022-10-16T14:02:53;21.10;99.90
17701;DHT22;8969;48.576;12.580;2022-10-16T14:05:24;21.10;99.90
17701;DHT22;8969;48.576;12.580;2022-10-16T14:07:53;21.00;99.90
17701;DHT22;8969;48.576;12.580;2022-10-16T14:10:24;21.00;99.90
17701;DHT22;8969;48.576;12.580;2022-10-16T14:12:57;21.00;99.90
17701;DHT22;8969;48.576;12.580;2022-10-16T14:15:26;21.00;99.90
17701;DHT22;8969;48.576;12.580;2022-10-16T14:17:54;20.90;99.90
17701;DHT22;8969;48.576;12.580;2022-10-16T14:20:26;20.90;99.90
17701;DHT22;8969;48.576;12.580;2022-10-16T14:23:00;20.80;99.90
17701;DHT22;8969;48.576;12.580;2022-10-16T14:25:30;20.80;99.90
17701;DHT22;8969;48.576;12.580;2022-10-16T14:28:04;20.70;99.90
17701;DHT22;8969;48.576;12.580;2022-10-16T14:30:35;20.60;99.90
17701;DHT22;8969;48.576;12.580;2022-10-16T14:33:05;20.60;99.90
17701;DHT22;8969;48.576;12.580;2022-10-16T14:35:37;20.50;99.90
17701;DHT22;8969;48.576;12.580;2022-10-16T14:38:16;20.40;99.90
17701;DHT22;8969;48.576;12.580;2022-10-16T14:40:48;20.40;99.90
17701;DHT22;8969;48.576;12.580;2022-10-16T14:43:21;20.40;99.90
17701;DHT22;8969;48.576;12.580;2022-10-16T14:45:52;20.30;99.90
17701;DHT22;8969;48.576;12.580;2022-10-16T14:48:21;20.40;99.90
17701;DHT22;8969;48.576;12.580;2022-10-16T14:50:50;20.30;99.90
17701;DHT22;8969;48.576;12.580;2022-10-16T14:53:19;20.20;99.90
17701;DHT22;8969;48.576;12.580;2022-10-16T14:55:47;20.10;99.90
17701;DHT22;8969;48.576;12.580;2022-10-16T14:58:17;20.00;99.90
17701;DHT22;8969;48.576;12.580;2022-10-16T15:00:46;20.00;99.90
17701;DHT22;8969;48.576;12.580;2022-10-16T15:03:14;19.90;99.90
17701;DHT22;8969;48.576;12.580;2022-10-16T15:05:43;19.80;99.90
17701;DHT22;8969;48.576;12.580;2022-10-16T15:08:13;19.80;99.90
17701;DHT22;8969;48.576;12.580;2022-10-16T15:10:43;19.70;99.90
17701;DHT22;8969;48.576;12.580;2022-10-16T15:13:12;19.70;99.90
17701;DHT22;8969;48.576;12.580;2022-10-16T15:15:43;19.70;99.90
17701;DHT22;8969;48.576;12.580;2022-10-16T15:18:12;19.60;99.90
17701;DHT22;8969;48.576;12.580;2022-10-16T15:20:41;19.60;99.90
17701;DHT22;8969;48.576;12.580;2022-10-16T15:23:17;19.60;99.90
17701;DHT22;8969;48.576;12.580;2022-10-16T15:25:46;19.60;99.90
17701;DHT22;8969;48.576;12.580;2022-10-16T15:28:16;19.50;99.90
17701;DHT22;8969;48.576;12.580;2022-10-16T15:30:45;19.50;99.90
17701;DHT22;8969;48.576;12.580;2022-10-16T15:33:15;19.40;99.90
17701;DHT22;8969;48.576;12.580;2022-10-16T15:35:46;19.40;99.90
17701;DHT22;8969;48.576;12.580;2022-10-16T15:38:18;19.30;99.90
17701;DHT22;8969;48.576;12.580;2022-10-16T15:40:47;19.20;99.90
17701;DHT22;8969;48.576;12.580;2022-10-16T15:43:15;19.20;99.90
17701;DHT22;8969;48.576;12.580;2022-10-16T15:45:44;19.10;99.90
17701;DHT22;8969;48.576;12.580;2022-10-16T15:48:13;19.10;99.90
17701;DHT22;8969;48.576;12.580;2022-10-16T15:50:41;19.00;99.90
17701;DHT22;8969;48.576;12.580;2022-10-16T15:53:16;18.90;99.90
17701;DHT22;8969;48.576;12.580;2022-10-16T15:55:44;18.80;99.90
17701;DHT22;8969;48.576;12.580;2022-10-16T15:58:12;18.70;99.90
17701;DHT22;8969;48.576;12.580;2022-10-16T16:00:40;18.60;99.90
17701;DHT22;8969;48.576;12.580;2022-10-16T16:03:09;18.60;99.90
17701;DHT22;8969;48.576;12.580;2022-10-16T16:05:38;18.50;99.90
17701;DHT22;8969;48.576;12.580;2022-10-16T16:08:12;18.40;99.90